Aviation Digital Data Service (ADDS)

Output produced by METARs form (0212 UTC 22 April 2019)
found at http://www.aviationweather.gov/metar/data/
 
METAR text: KLGB 220153Z 30010KT 10SM CLR 18/08 A2997 RMK AO2 SLP148 T01780083
Conditions at: KLGB (LONG BEACH , CA, US) observed 0153 UTC 22 April 2019
Temperature: 17.8°C (64°F)
Dewpoint: 8.3°C (47°F) [RH = 54%]
Pressure (altimeter): 29.97 inches Hg (1015.0 mb)
[Sea-level pressure: 1014.8 mb]
Winds: from the WNW (300 degrees) at 12 MPH (10 knots; 5.1 m/s)
Visibility: 10 or more miles (16+ km)
Ceiling: at least 12,000 feet AGL
Clouds: sky clear below 12,000 feet AGL
Weather: no significant weather observed at this time

METAR text: KLGB 220053Z 29010KT 10SM CLR 19/09 A2997 RMK AO2 SLP147 T01890089
Conditions at: KLGB (LONG BEACH , CA, US) observed 0053 UTC 22 April 2019
Temperature: 18.9°C (66°F)
Dewpoint: 8.9°C (48°F) [RH = 52%]
Pressure (altimeter): 29.97 inches Hg (1015.0 mb)
[Sea-level pressure: 1014.7 mb]
Winds: from the WNW (290 degrees) at 12 MPH (10 knots; 5.1 m/s)
Visibility: 10 or more miles (16+ km)
Ceiling: at least 12,000 feet AGL
Clouds: sky clear below 12,000 feet AGL
Weather: no significant weather observed at this time

METAR text: KLGB 212353Z VRB03KT 10SM CLR 20/08 A2997 RMK AO2 SLP148 T02000078 10206 20178 56012
Conditions at: KLGB (LONG BEACH , CA, US) observed 2353 UTC 21 April 2019
Temperature: 20.0°C (68°F)
Dewpoint: 7.8°C (46°F) [RH = 45%]
Pressure (altimeter): 29.97 inches Hg (1015.0 mb)
[Sea-level pressure: 1014.8 mb]
Winds: variable direction winds at 3 MPH (3 knots; 1.5 m/s)
Visibility: 10 or more miles (16+ km)
Ceiling: at least 12,000 feet AGL
Clouds: sky clear below 12,000 feet AGL
Weather: no significant weather observed at this time

METAR text: KLGB 212253Z 19009KT 10SM CLR 19/07 A2997 RMK AO2 SLP148 T01940072
Conditions at: KLGB (LONG BEACH , CA, US) observed 2253 UTC 21 April 2019
Temperature: 19.4°C (67°F)
Dewpoint: 7.2°C (45°F) [RH = 45%]
Pressure (altimeter): 29.97 inches Hg (1015.0 mb)
[Sea-level pressure: 1014.8 mb]
Winds: from the S (190 degrees) at 10 MPH (9 knots; 4.6 m/s)
Visibility: 10 or more miles (16+ km)
Ceiling: at least 12,000 feet AGL
Clouds: sky clear below 12,000 feet AGL
Weather: no significant weather observed at this time

METAR text: KLGB 212153Z 20010KT 10SM CLR 19/07 A2999 RMK AO2 SLP154 T01940067
Conditions at: KLGB (LONG BEACH , CA, US) observed 2153 UTC 21 April 2019
Temperature: 19.4°C (67°F)
Dewpoint: 6.7°C (44°F) [RH = 44%]
Pressure (altimeter): 29.99 inches Hg (1015.7 mb)
[Sea-level pressure: 1015.4 mb]
Winds: from the SSW (200 degrees) at 12 MPH (10 knots; 5.1 m/s)
Visibility: 10 or more miles (16+ km)
Ceiling: at least 12,000 feet AGL
Clouds: sky clear below 12,000 feet AGL
Weather: no significant weather observed at this time

METAR text: KLGB 212053Z 21008KT 170V240 10SM BKN044 19/07 A3000 RMK AO2 SLP160 T01940072 58012
Conditions at: KLGB (LONG BEACH , CA, US) observed 2053 UTC 21 April 2019
Temperature: 19.4°C (67°F)
Dewpoint: 7.2°C (45°F) [RH = 45%]
Pressure (altimeter): 30.00 inches Hg (1016.0 mb)
[Sea-level pressure: 1016.0 mb]
Winds: from the SSW (210 degrees) at 9 MPH (8 knots; 4.1 m/s)
Visibility: 10 or more miles (16+ km)
Ceiling: 4400 feet AGL
Clouds: broken clouds at 4400 feet AGL
Weather: no significant weather observed at this time

METAR text: KLGB 211953Z 17006KT 10SM SCT046 19/08 A3002 RMK AO2 SLP163 T01940078
Conditions at: KLGB (LONG BEACH , CA, US) observed 1953 UTC 21 April 2019
Temperature: 19.4°C (67°F)
Dewpoint: 7.8°C (46°F) [RH = 47%]
Pressure (altimeter): 30.02 inches Hg (1016.7 mb)
[Sea-level pressure: 1016.3 mb]
Winds: from the S (170 degrees) at 7 MPH (6 knots; 3.1 m/s)
Visibility: 10 or more miles (16+ km)
Ceiling: at least 12,000 feet AGL
Clouds: scattered clouds at 4600 feet AGL
Weather: no significant weather observed at this time

METAR text: KLGB 211908Z VRB05KT 10SM BKN046 19/08 A3003 RMK AO2 T01890083
Conditions at: KLGB (LONG BEACH , CA, US) observed 1908 UTC 21 April 2019
Temperature: 18.9°C (66°F)
Dewpoint: 8.3°C (47°F) [RH = 50%]
Pressure (altimeter): 30.03 inches Hg (1017.0 mb)
Winds: variable direction winds at 6 MPH (5 knots; 2.6 m/s)
Visibility: 10 or more miles (16+ km)
Ceiling: 4600 feet AGL
Clouds: broken clouds at 4600 feet AGL
Weather: no significant weather observed at this time

METAR text: KLGB 211853Z 15011KT 10SM BKN042 19/08 A3003 RMK AO2 SLP170 T01890083
Conditions at: KLGB (LONG BEACH , CA, US) observed 1853 UTC 21 April 2019
Temperature: 18.9°C (66°F)
Dewpoint: 8.3°C (47°F) [RH = 50%]
Pressure (altimeter): 30.03 inches Hg (1017.0 mb)
[Sea-level pressure: 1017.0 mb]
Winds: from the SSE (150 degrees) at 13 MPH (11 knots; 5.7 m/s)
Visibility: 10 or more miles (16+ km)
Ceiling: 4200 feet AGL
Clouds: broken clouds at 4200 feet AGL
Weather: no significant weather observed at this time

METAR text: KLGB 211753Z VRB06KT 10SM SCT039 BKN048 19/08 A3004 RMK AO2 SLP171 T01890083 10194 20133 50005
Conditions at: KLGB (LONG BEACH , CA, US) observed 1753 UTC 21 April 2019
Temperature: 18.9°C (66°F)
Dewpoint: 8.3°C (47°F) [RH = 50%]
Pressure (altimeter): 30.04 inches Hg (1017.4 mb)
[Sea-level pressure: 1017.1 mb]
Winds: variable direction winds at 7 MPH (6 knots; 3.1 m/s)
Visibility: 10 or more miles (16+ km)
Ceiling: 4800 feet AGL
Clouds: scattered clouds at 3900 feet AGL
broken clouds at 4800 feet AGL
Weather: no significant weather observed at this time

METAR text: KLGB 211653Z 24004KT 10SM OVC047 17/09 A3004 RMK AO2 SLP172 T01720089
Conditions at: KLGB (LONG BEACH , CA, US) observed 1653 UTC 21 April 2019
Temperature: 17.2°C (63°F)
Dewpoint: 8.9°C (48°F) [RH = 58%]
Pressure (altimeter): 30.04 inches Hg (1017.4 mb)
[Sea-level pressure: 1017.2 mb]
Winds: from the WSW (240 degrees) at 5 MPH (4 knots; 2.1 m/s)
Visibility: 10 or more miles (16+ km)
Ceiling: 4700 feet AGL
Clouds: overcast cloud deck at 4700 feet AGL
Weather: no significant weather observed at this time

METAR text: KLGB 211600Z 00000KT 10SM FEW019 OVC043 16/09 A3003 RMK AO2 T01560094
Conditions at: KLGB (LONG BEACH , CA, US) observed 1600 UTC 21 April 2019
Temperature: 15.6°C (60°F)
Dewpoint: 9.4°C (49°F) [RH = 67%]
Pressure (altimeter): 30.03 inches Hg (1017.0 mb)
Winds: calm
Visibility: 10 or more miles (16+ km)
Ceiling: 4300 feet AGL
Clouds: few clouds at 1900 feet AGL
overcast cloud deck at 4300 feet AGL
Weather: no significant weather observed at this time

METAR text: KLGB 211553Z 26005KT 10SM SCT019 BKN027 OVC043 16/09 A3003 RMK AO2 SLP168 T01560094
Conditions at: KLGB (LONG BEACH , CA, US) observed 1553 UTC 21 April 2019
Temperature: 15.6°C (60°F)
Dewpoint: 9.4°C (49°F) [RH = 67%]
Pressure (altimeter): 30.03 inches Hg (1017.0 mb)
[Sea-level pressure: 1016.8 mb]
Winds: from the W (260 degrees) at 6 MPH (5 knots; 2.6 m/s)
Visibility: 10 or more miles (16+ km)
Ceiling: 2700 feet AGL
Clouds: scattered clouds at 1900 feet AGL
broken clouds at 2700 feet AGL
overcast cloud deck at 4300 feet AGL
Weather: no significant weather observed at this time

METAR text: KLGB 211453Z 00000KT 10SM SCT019 BKN027 OVC043 14/09 A3002 RMK AO2 SLP166 T01440094 53006
Conditions at: KLGB (LONG BEACH , CA, US) observed 1453 UTC 21 April 2019
Temperature: 14.4°C (58°F)
Dewpoint: 9.4°C (49°F) [RH = 72%]
Pressure (altimeter): 30.02 inches Hg (1016.7 mb)
[Sea-level pressure: 1016.6 mb]
Winds: calm
Visibility: 10 or more miles (16+ km)
Ceiling: 2700 feet AGL
Clouds: scattered clouds at 1900 feet AGL
broken clouds at 2700 feet AGL
overcast cloud deck at 4300 feet AGL
Weather: no significant weather observed at this time

METAR text: KLGB 211353Z 30003KT 10SM OVC026 13/10 A3002 RMK AO2 SLP165 T01330100
Conditions at: KLGB (LONG BEACH , CA, US) observed 1353 UTC 21 April 2019
Temperature: 13.3°C (56°F)
Dewpoint: 10.0°C (50°F) [RH = 80%]
Pressure (altimeter): 30.02 inches Hg (1016.7 mb)
[Sea-level pressure: 1016.5 mb]
Winds: from the WNW (300 degrees) at 3 MPH (3 knots; 1.5 m/s)
Visibility: 10 or more miles (16+ km)
Ceiling: 2600 feet AGL
Clouds: overcast cloud deck at 2600 feet AGL
Weather: no significant weather observed at this time

METAR text: KLGB 211253Z AUTO 31003KT 10SM CLR 13/09 A3001 RMK AO2 SLP161 T01330094
Conditions at: KLGB (LONG BEACH , CA, US) observed 1253 UTC 21 April 2019
Temperature: 13.3°C (56°F)
Dewpoint: 9.4°C (49°F) [RH = 77%]
Pressure (altimeter): 30.01 inches Hg (1016.3 mb)
[Sea-level pressure: 1016.1 mb]
Winds: from the NW (310 degrees) at 3 MPH (3 knots; 1.5 m/s)
Visibility: 10 or more miles (16+ km)
Ceiling: at least 12,000 feet AGL
Clouds: sky clear below 12,000 feet AGL
Weather: automated observation with no human augmentation;
there may or may not be significant weather present at this time

METAR text: KLGB 211153Z AUTO 30004KT 10SM BKN044 14/10 A3001 RMK AO2 SLP161 T01390100 10150 20139 53001
Conditions at: KLGB (LONG BEACH , CA, US) observed 1153 UTC 21 April 2019
Temperature: 13.9°C (57°F)
Dewpoint: 10.0°C (50°F) [RH = 77%]
Pressure (altimeter): 30.01 inches Hg (1016.3 mb)
[Sea-level pressure: 1016.1 mb]
Winds: from the WNW (300 degrees) at 5 MPH (4 knots; 2.1 m/s)
Visibility: 10 or more miles (16+ km)
Ceiling: 4400 feet AGL
Clouds: broken clouds at 4400 feet AGL
Weather: automated observation with no human augmentation;
there may or may not be significant weather present at this time

METAR text: KLGB 211053Z AUTO 34003KT 10SM BKN043 14/10 A3000 RMK AO2 SLP158 T01390100
Conditions at: KLGB (LONG BEACH , CA, US) observed 1053 UTC 21 April 2019
Temperature: 13.9°C (57°F)
Dewpoint: 10.0°C (50°F) [RH = 77%]
Pressure (altimeter): 30.00 inches Hg (1016.0 mb)
[Sea-level pressure: 1015.8 mb]
Winds: from the NNW (340 degrees) at 3 MPH (3 knots; 1.5 m/s)
Visibility: 10 or more miles (16+ km)
Ceiling: 4300 feet AGL
Clouds: broken clouds at 4300 feet AGL
Weather: automated observation with no human augmentation;
there may or may not be significant weather present at this time

METAR text: KLGB 210953Z AUTO 29004KT 10SM OVC039 14/11 A3000 RMK AO2 SLP158 T01440106
Conditions at: KLGB (LONG BEACH , CA, US) observed 0953 UTC 21 April 2019
Temperature: 14.4°C (58°F)
Dewpoint: 10.6°C (51°F) [RH = 78%]
Pressure (altimeter): 30.00 inches Hg (1016.0 mb)
[Sea-level pressure: 1015.8 mb]
Winds: from the WNW (290 degrees) at 5 MPH (4 knots; 2.1 m/s)
Visibility: 10 or more miles (16+ km)
Ceiling: 3900 feet AGL
Clouds: overcast cloud deck at 3900 feet AGL
Weather: automated observation with no human augmentation;
there may or may not be significant weather present at this time

METAR text: KLGB 210853Z AUTO 31004KT 10SM OVC038 14/11 A3001 RMK AO2 SLP160 T01440106 58000
Conditions at: KLGB (LONG BEACH , CA, US) observed 0853 UTC 21 April 2019
Temperature: 14.4°C (58°F)
Dewpoint: 10.6°C (51°F) [RH = 78%]
Pressure (altimeter): 30.01 inches Hg (1016.3 mb)
[Sea-level pressure: 1016.0 mb]
Winds: from the NW (310 degrees) at 5 MPH (4 knots; 2.1 m/s)
Visibility: 10 or more miles (16+ km)
Ceiling: 3800 feet AGL
Clouds: overcast cloud deck at 3800 feet AGL
Weather: automated observation with no human augmentation;
there may or may not be significant weather present at this time

METAR text: KLGB 210753Z AUTO 15003KT 10SM BKN039 14/10 A3001 RMK AO2 SLP161 T01440100 401940144
Conditions at: KLGB (LONG BEACH , CA, US) observed 0753 UTC 21 April 2019
Temperature: 14.4°C (58°F)
Dewpoint: 10.0°C (50°F) [RH = 75%]
Pressure (altimeter): 30.01 inches Hg (1016.3 mb)
[Sea-level pressure: 1016.1 mb]
Winds: from the SSE (150 degrees) at 3 MPH (3 knots; 1.5 m/s)
Visibility: 10 or more miles (16+ km)
Ceiling: 3900 feet AGL
Clouds: broken clouds at 3900 feet AGL
Weather: automated observation with no human augmentation;
there may or may not be significant weather present at this time

METAR text: KLGB 210653Z AUTO 00000KT 10SM BKN032 15/10 A3002 RMK AO2 SLP165 T01500100
Conditions at: KLGB (LONG BEACH , CA, US) observed 0653 UTC 21 April 2019
Temperature: 15.0°C (59°F)
Dewpoint: 10.0°C (50°F) [RH = 72%]
Pressure (altimeter): 30.02 inches Hg (1016.7 mb)
[Sea-level pressure: 1016.5 mb]
Winds: calm
Visibility: 10 or more miles (16+ km)
Ceiling: 3200 feet AGL
Clouds: broken clouds at 3200 feet AGL
Weather: automated observation with no human augmentation;
there may or may not be significant weather present at this time

METAR text: KLGB 210553Z 00000KT 10SM CLR 15/10 A3001 RMK AO2 SLP160 T01500100 10183 20144 53005
Conditions at: KLGB (LONG BEACH , CA, US) observed 0553 UTC 21 April 2019
Temperature: 15.0°C (59°F)
Dewpoint: 10.0°C (50°F) [RH = 72%]
Pressure (altimeter): 30.01 inches Hg (1016.3 mb)
[Sea-level pressure: 1016.0 mb]
Winds: calm
Visibility: 10 or more miles (16+ km)
Ceiling: at least 12,000 feet AGL
Clouds: sky clear below 12,000 feet AGL
Weather: no significant weather observed at this time

METAR text: KLGB 210453Z 31003KT 10SM CLR 14/10 A3001 RMK AO2 SLP160 T01440100
Conditions at: KLGB (LONG BEACH , CA, US) observed 0453 UTC 21 April 2019
Temperature: 14.4°C (58°F)
Dewpoint: 10.0°C (50°F) [RH = 75%]
Pressure (altimeter): 30.01 inches Hg (1016.3 mb)
[Sea-level pressure: 1016.0 mb]
Winds: from the NW (310 degrees) at 3 MPH (3 knots; 1.5 m/s)
Visibility: 10 or more miles (16+ km)
Ceiling: at least 12,000 feet AGL
Clouds: sky clear below 12,000 feet AGL
Weather: no significant weather observed at this time

METAR text: KLGB 210353Z 31007KT 10SM FEW026 15/10 A2999 RMK AO2 SLP154 T01500100
Conditions at: KLGB (LONG BEACH , CA, US) observed 0353 UTC 21 April 2019
Temperature: 15.0°C (59°F)
Dewpoint: 10.0°C (50°F) [RH = 72%]
Pressure (altimeter): 29.99 inches Hg (1015.7 mb)
[Sea-level pressure: 1015.4 mb]
Winds: from the NW (310 degrees) at 8 MPH (7 knots; 3.6 m/s)
Visibility: 10 or more miles (16+ km)
Ceiling: at least 12,000 feet AGL
Clouds: few clouds at 2600 feet AGL
Weather: no significant weather observed at this time

METAR text: KLGB 210348Z 30008KT 10SM SCT026 16/10 A2999 RMK AO2
Conditions at: KLGB (LONG BEACH , CA, US) observed 0348 UTC 21 April 2019
Temperature: 16.0°C (61°F)
Dewpoint: 10.0°C (50°F) [RH = 68%]
Pressure (altimeter): 29.99 inches Hg (1015.7 mb)
Winds: from the WNW (300 degrees) at 9 MPH (8 knots; 4.1 m/s)
Visibility: 10 or more miles (16+ km)
Ceiling: at least 12,000 feet AGL
Clouds: scattered clouds at 2600 feet AGL
Weather: no significant weather observed at this time

METAR text: KLGB 210253Z 30008KT 10SM FEW021 OVC026 16/10 A2998 RMK AO2 SLP151 T01560100 53004
Conditions at: KLGB (LONG BEACH , CA, US) observed 0253 UTC 21 April 2019
Temperature: 15.6°C (60°F)
Dewpoint: 10.0°C (50°F) [RH = 69%]
Pressure (altimeter): 29.98 inches Hg (1015.3 mb)
[Sea-level pressure: 1015.1 mb]
Winds: from the WNW (300 degrees) at 9 MPH (8 knots; 4.1 m/s)
Visibility: 10 or more miles (16+ km)
Ceiling: 2600 feet AGL
Clouds: few clouds at 2100 feet AGL
overcast cloud deck at 2600 feet AGL
Weather: no significant weather observed at this time

METAR text: KLGB 210220Z 30010KT 10SM BKN022 OVC035 16/10 A2997 RMK AO2 T01610100
Conditions at: KLGB (LONG BEACH , CA, US) observed 0220 UTC 21 April 2019
Temperature: 16.1°C (61°F)
Dewpoint: 10.0°C (50°F) [RH = 67%]
Pressure (altimeter): 29.97 inches Hg (1015.0 mb)
Winds: from the WNW (300 degrees) at 12 MPH (10 knots; 5.1 m/s)
Visibility: 10 or more miles (16+ km)
Ceiling: 2200 feet AGL
Clouds: broken clouds at 2200 feet AGL
overcast cloud deck at 3500 feet AGL
Weather: no significant weather observed at this time

METAR text: KLGB 210153Z 21006KT 10SM SCT034 17/09 A2997 RMK AO2 SLP148 T01670089
Conditions at: KLGB (LONG BEACH , CA, US) observed 0153 UTC 21 April 2019
Temperature: 16.7°C (62°F)
Dewpoint: 8.9°C (48°F) [RH = 60%]
Pressure (altimeter): 29.97 inches Hg (1015.0 mb)
[Sea-level pressure: 1014.8 mb]
Winds: from the SSW (210 degrees) at 7 MPH (6 knots; 3.1 m/s)
Visibility: 10 or more miles (16+ km)
Ceiling: at least 12,000 feet AGL
Clouds: scattered clouds at 3400 feet AGL
Weather: no significant weather observed at this time

METAR text: KLGB 210053Z 24006KT 10SM CLR 17/08 A2997 RMK AO2 SLP147 T01720083
Conditions at: KLGB (LONG BEACH , CA, US) observed 0053 UTC 21 April 2019
Temperature: 17.2°C (63°F)
Dewpoint: 8.3°C (47°F) [RH = 56%]
Pressure (altimeter): 29.97 inches Hg (1015.0 mb)
[Sea-level pressure: 1014.7 mb]
Winds: from the WSW (240 degrees) at 7 MPH (6 knots; 3.1 m/s)
Visibility: 10 or more miles (16+ km)
Ceiling: at least 12,000 feet AGL
Clouds: sky clear below 12,000 feet AGL
Weather: no significant weather observed at this time

METAR text: KLGB 202353Z 19008KT 10SM CLR 18/08 A2997 RMK AO2 SLP147 T01830083 10194 20161 55012
Conditions at: KLGB (LONG BEACH , CA, US) observed 2353 UTC 20 April 2019
Temperature: 18.3°C (65°F)
Dewpoint: 8.3°C (47°F) [RH = 52%]
Pressure (altimeter): 29.97 inches Hg (1015.0 mb)
[Sea-level pressure: 1014.7 mb]
Winds: from the S (190 degrees) at 9 MPH (8 knots; 4.1 m/s)
Visibility: 10 or more miles (16+ km)
Ceiling: at least 12,000 feet AGL
Clouds: sky clear below 12,000 feet AGL
Weather: no significant weather observed at this time

METAR text: KLGB 202253Z 17008KT 10SM CLR 19/09 A2997 RMK AO2 SLP147 T01890089
Conditions at: KLGB (LONG BEACH , CA, US) observed 2253 UTC 20 April 2019
Temperature: 18.9°C (66°F)
Dewpoint: 8.9°C (48°F) [RH = 52%]
Pressure (altimeter): 29.97 inches Hg (1015.0 mb)
[Sea-level pressure: 1014.7 mb]
Winds: from the S (170 degrees) at 9 MPH (8 knots; 4.1 m/s)
Visibility: 10 or more miles (16+ km)
Ceiling: at least 12,000 feet AGL
Clouds: sky clear below 12,000 feet AGL
Weather: no significant weather observed at this time

METAR text: KLGB 202153Z 19006KT 10SM SCT040 19/09 A2999 RMK AO2 SLP154 T01890089
Conditions at: KLGB (LONG BEACH , CA, US) observed 2153 UTC 20 April 2019
Temperature: 18.9°C (66°F)
Dewpoint: 8.9°C (48°F) [RH = 52%]
Pressure (altimeter): 29.99 inches Hg (1015.7 mb)
[Sea-level pressure: 1015.4 mb]
Winds: from the S (190 degrees) at 7 MPH (6 knots; 3.1 m/s)
Visibility: 10 or more miles (16+ km)
Ceiling: at least 12,000 feet AGL
Clouds: scattered clouds at 4000 feet AGL
Weather: no significant weather observed at this time

METAR text: KLGB 202053Z 18007KT 10SM FEW026 BKN042 18/09 A3000 RMK AO2 SLP159 T01780094 58005
Conditions at: KLGB (LONG BEACH , CA, US) observed 2053 UTC 20 April 2019
Temperature: 17.8°C (64°F)
Dewpoint: 9.4°C (49°F) [RH = 58%]
Pressure (altimeter): 30.00 inches Hg (1016.0 mb)
[Sea-level pressure: 1015.9 mb]
Winds: from the S (180 degrees) at 8 MPH (7 knots; 3.6 m/s)
Visibility: 10 or more miles (16+ km)
Ceiling: 4200 feet AGL
Clouds: few clouds at 2600 feet AGL
broken clouds at 4200 feet AGL
Weather: no significant weather observed at this time

METAR text: KLGB 201953Z VRB04KT 10SM OVC037 17/09 A3001 RMK AO2 SLP161 T01720094
Conditions at: KLGB (LONG BEACH , CA, US) observed 1953 UTC 20 April 2019
Temperature: 17.2°C (63°F)
Dewpoint: 9.4°C (49°F) [RH = 60%]
Pressure (altimeter): 30.01 inches Hg (1016.3 mb)
[Sea-level pressure: 1016.1 mb]
Winds: variable direction winds at 5 MPH (4 knots; 2.1 m/s)
Visibility: 10 or more miles (16+ km)
Ceiling: 3700 feet AGL
Clouds: overcast cloud deck at 3700 feet AGL
Weather: no significant weather observed at this time

METAR text: KLGB 201853Z VRB03KT 10SM FEW023 OVC030 16/09 A3002 RMK AO2 SLP165 T01610094
Conditions at: KLGB (LONG BEACH , CA, US) observed 1853 UTC 20 April 2019
Temperature: 16.1°C (61°F)
Dewpoint: 9.4°C (49°F) [RH = 64%]
Pressure (altimeter): 30.02 inches Hg (1016.7 mb)
[Sea-level pressure: 1016.5 mb]
Winds: variable direction winds at 3 MPH (3 knots; 1.5 m/s)
Visibility: 10 or more miles (16+ km)
Ceiling: 3000 feet AGL
Clouds: few clouds at 2300 feet AGL
overcast cloud deck at 3000 feet AGL
Weather: no significant weather observed at this time

METAR text: KLGB 201753Z 26007KT 10SM OVC031 16/09 A3002 RMK AO2 SLP164 T01610094 10167 20144 53019
Conditions at: KLGB (LONG BEACH , CA, US) observed 1753 UTC 20 April 2019
Temperature: 16.1°C (61°F)
Dewpoint: 9.4°C (49°F) [RH = 64%]
Pressure (altimeter): 30.02 inches Hg (1016.7 mb)
[Sea-level pressure: 1016.4 mb]
Winds: from the W (260 degrees) at 8 MPH (7 knots; 3.6 m/s)
Visibility: 10 or more miles (16+ km)
Ceiling: 3100 feet AGL
Clouds: overcast cloud deck at 3100 feet AGL
Weather: no significant weather observed at this time

METAR text: KLGB 201730Z 23006KT 10SM OVC030 16/10 A3001 RMK AO2 T01560100
Conditions at: KLGB (LONG BEACH , CA, US) observed 1730 UTC 20 April 2019
Temperature: 15.6°C (60°F)
Dewpoint: 10.0°C (50°F) [RH = 69%]
Pressure (altimeter): 30.01 inches Hg (1016.3 mb)
Winds: from the SW (230 degrees) at 7 MPH (6 knots; 3.1 m/s)
Visibility: 10 or more miles (16+ km)
Ceiling: 3000 feet AGL
Clouds: overcast cloud deck at 3000 feet AGL
Weather: no significant weather observed at this time

METAR text: KLGB 201653Z 23005KT 10SM OVC028 16/11 A3000 RMK AO2 SLP157 T01560106
Conditions at: KLGB (LONG BEACH , CA, US) observed 1653 UTC 20 April 2019
Temperature: 15.6°C (60°F)
Dewpoint: 10.6°C (51°F) [RH = 72%]
Pressure (altimeter): 30.00 inches Hg (1016.0 mb)
[Sea-level pressure: 1015.7 mb]
Winds: from the SW (230 degrees) at 6 MPH (5 knots; 2.6 m/s)
Visibility: 10 or more miles (16+ km)
Ceiling: 2800 feet AGL
Clouds: overcast cloud deck at 2800 feet AGL
Weather: no significant weather observed at this time

METAR text: KLGB 201553Z 20007KT 10SM OVC023 15/11 A2998 RMK AO2 SLP150 T01500111
Conditions at: KLGB (LONG BEACH , CA, US) observed 1553 UTC 20 April 2019
Temperature: 15.0°C (59°F)
Dewpoint: 11.1°C (52°F) [RH = 77%]
Pressure (altimeter): 29.98 inches Hg (1015.3 mb)
[Sea-level pressure: 1015.0 mb]
Winds: from the SSW (200 degrees) at 8 MPH (7 knots; 3.6 m/s)
Visibility: 10 or more miles (16+ km)
Ceiling: 2300 feet AGL
Clouds: overcast cloud deck at 2300 feet AGL
Weather: no significant weather observed at this time

METAR text: KLGB 201453Z 16004KT 10SM OVC026 15/11 A2996 RMK AO2 SLP146 T01500106 53013
Conditions at: KLGB (LONG BEACH , CA, US) observed 1453 UTC 20 April 2019
Temperature: 15.0°C (59°F)
Dewpoint: 10.6°C (51°F) [RH = 75%]
Pressure (altimeter): 29.96 inches Hg (1014.6 mb)
[Sea-level pressure: 1014.6 mb]
Winds: from the SSE (160 degrees) at 5 MPH (4 knots; 2.1 m/s)
Visibility: 10 or more miles (16+ km)
Ceiling: 2600 feet AGL
Clouds: overcast cloud deck at 2600 feet AGL
Weather: no significant weather observed at this time

Forecast for: KLGB (LONG BEACH , CA, US)
Text: KLGB 212324Z 2200/2224 30008KT P6SM SKC
Forecast period: 0000 to 0400 UTC 22 April 2019
Forecast type: FROM: standard forecast or significant change
Winds: from the WNW (300 degrees) at 9 MPH (8 knots; 4.1 m/s)
Visibility: 6 or more miles 10+ km)
Clouds: clear skies
Weather: no significant weather forecast for this period
Text: FM220400 VRB03KT P6SM SKC
Forecast period: 0400 to 1200 UTC 22 April 2019
Forecast type: FROM: standard forecast or significant change
Winds: variable direction winds at 3 MPH (3 knots; 1.5 m/s)
Visibility: 6 or more miles 10+ km)
Clouds: clear skies
Weather: no significant weather forecast for this period
Text: FM221200 VRB03KT P6SM BKN010
Forecast period: 1200 to 1600 UTC 22 April 2019
Forecast type: FROM: standard forecast or significant change
Winds: variable direction winds at 3 MPH (3 knots; 1.5 m/s)
Visibility: 6 or more miles 10+ km)
Ceiling: 1000 feet AGL
Clouds: broken clouds at 1000 feet AGL
Weather: no significant weather forecast for this period
Text: FM221600 19006KT P6SM SKC
Forecast period: 1600 to 2300 UTC 22 April 2019
Forecast type: FROM: standard forecast or significant change
Winds: from the S (190 degrees) at 7 MPH (6 knots; 3.1 m/s)
Visibility: 6 or more miles 10+ km)
Clouds: clear skies
Weather: no significant weather forecast for this period
Text: FM222300 29008KT P6SM SKC
Forecast period: 2300 UTC 22 April 2019 to 0000 UTC 23 April 2019
Forecast type: FROM: standard forecast or significant change
Winds: from the WNW (290 degrees) at 9 MPH (8 knots; 4.1 m/s)
Visibility: 6 or more miles 10+ km)
Clouds: clear skies
Weather: no significant weather forecast for this period